Terminal Aerodrome Forecast
Issued by NWS

Home | Current Version | Previous Version | Text Only | Print | Product List | Glossary On
Versions: 1 2 3 4 5 6 7 8 9 10 11 12 13
732
FTAK31 PAJN 290520
TAFAPG
TAF
PAPG 290520Z 2906/3006 VRB03KT P6SM SCT035 BKN070 OVC090
     FM291600 05003KT 5SM -SHRA BR SCT030 OVC050
     FM300400 VRB03KT P6SM VCSH BKN050 OVC070
      AMD LTD TO CLD VIS AND WIND 2906/2915=

USA.gov is the U.S. government's official web portal to all federal, state and local government web resources and services.